Time;durP1;ratioP1;P1;durP2;ratioP2;P2;SDS_P1;SDS_P2;PMS_P1;PMS_P2;Temp;Humidity;BMP_temperature;BMP_pressure;BME280_temperature;BME280_humidity;BME280_pressure;Samples;Min_cycle;Max_cycle;Signal;HPM_P1;HPM_P2
2021/06/20 00:00:20;;;;;;;8.25;5.25;;;;;;;12.03;96.33;93291.56;1820766;77;21591;-81
2021/06/20 00:02:47;;;;;;;7.58;4.50;;;;;;;11.93;96.04;93287.62;1766472;80;21637;-78
2021/06/20 00:05:18;;;;;;;6.17;4.25;;;;;;;11.83;96.10;93290.59;1771828;80;21113;-76
2021/06/20 00:07:45;;;;;;;4.72;3.72;;;;;;;11.77;96.45;93291.65;1805153;78;22394;-78
2021/06/20 00:10:15;;;;;;;4.12;3.72;;;;;;;11.67;96.53;93291.93;1810868;78;21108;-81
2021/06/20 00:12:42;;;;;;;6.62;4.03;;;;;;;11.60;97.40;93297.44;1800604;78;21682;-81
2021/06/20 00:15:13;;;;;;;3.90;2.55;;;;;;;11.52;97.95;93293.25;1777005;80;21229;-81
2021/06/20 00:17:39;;;;;;;3.90;2.83;;;;;;;11.50;98.35;93296.95;1745629;82;21052;-78
2021/06/20 00:20:08;;;;;;;2.22;2.12;;;;;;;11.48;98.21;93309.44;1789043;79;21070;-82
2021/06/20 00:22:35;;;;;;;3.20;3.00;;;;;;;11.45;98.02;93308.87;1802778;79;22331;-83
2021/06/20 00:25:05;;;;;;;3.52;2.12;;;;;;;11.37;97.99;93309.53;1796390;79;21014;-79
2021/06/20 00:27:32;;;;;;;2.80;2.60;;;;;;;11.36;98.54;93306.63;1744610;80;21063;-78
2021/06/20 00:29:58;;;;;;;2.60;2.05;;;;;;;11.40;98.10;93302.70;1755565;80;22143;-78
2021/06/20 00:32:25;;;;;;;3.08;1.92;;;;;;;11.43;97.42;93302.45;1774820;80;21053;-77
2021/06/20 00:34:53;;;;;;;2.65;2.00;;;;;;;11.35;97.58;93301.75;1758390;80;21041;-82
2021/06/20 00:37:19;;;;;;;2.58;2.37;;;;;;;11.27;97.90;93300.86;1756025;79;21014;-79
2021/06/20 00:39:46;;;;;;;2.55;2.10;;;;;;;11.17;98.24;93302.52;1763377;80;21417;-79
2021/06/20 00:42:12;;;;;;;3.10;2.17;;;;;;;11.10;98.78;93294.41;1771819;80;21279;-81
2021/06/20 00:44:49;;;;;;;2.02;1.92;;;;;;;11.08;99.15;93294.78;1835932;77;21261;-80
2021/06/20 00:47:17;;;;;;;22.73;3.90;;;;;;;11.04;99.14;93295.41;1816293;77;21088;-80
2021/06/20 00:49:45;;;;;;;2.08;1.98;;;;;;;11.02;99.17;93294.25;1787719;77;21065;-79
2021/06/20 00:52:13;;;;;;;4.10;2.55;;;;;;;11.06;98.95;93289.58;1813252;78;21025;-80
2021/06/20 00:54:47;;;;;;;2.45;2.20;;;;;;;11.10;98.79;93286.23;1810499;78;20929;-79
2021/06/20 00:57:15;;;;;;;3.72;2.37;;;;;;;11.13;98.53;93291.66;1791208;78;21026;-82
2021/06/20 00:59:44;;;;;;;3.12;2.55;;;;;;;11.14;98.30;93296.50;1739861;81;21318;-78
2021/06/20 01:02:11;;;;;;;2.02;1.92;;;;;;;11.11;98.44;93291.86;1779559;78;21054;-81
2021/06/20 01:04:41;;;;;;;4.55;1.92;;;;;;;11.11;98.05;93289.91;1813173;78;21052;-82
2021/06/20 01:07:08;;;;;;;6.17;2.62;;;;;;;11.04;97.81;93289.95;1812259;78;21043;-81
2021/06/20 01:09:35;;;;;;;2.87;2.40;;;;;;;10.96;98.05;93292.55;1815929;76;21030;-83
2021/06/20 01:12:02;;;;;;;4.17;2.37;;;;;;;10.90;98.31;93292.19;1833228;78;21105;-80
2021/06/20 01:14:28;;;;;;;3.72;3.40;;;;;;;10.89;98.97;93294.73;1819882;78;21499;-82
2021/06/20 01:16:57;;;;;;;6.00;4.00;;;;;;;10.94;99.39;93291.61;1811598;78;21026;-78
2021/06/20 01:19:24;;;;;;;8.73;4.28;;;;;;;10.97;99.83;93287.29;1820236;78;21027;-78
2021/06/20 01:21:52;;;;;;;7.42;4.40;;;;;;;11.06;100.00;93291.70;1777974;79;21030;-78
2021/06/20 01:24:19;;;;;;;4.65;4.00;;;;;;;11.14;100.00;93290.47;1759676;81;21272;-79
2021/06/20 01:26:46;;;;;;;4.47;4.08;;;;;;;11.17;100.00;93292.98;1812995;78;21593;-80
2021/06/20 01:29:13;;;;;;;4.12;3.40;;;;;;;11.13;100.00;93289.49;1823462;78;21101;-82
2021/06/20 01:31:48;;;;;;;7.15;3.35;;;;;;;11.18;100.00;93293.16;1808394;78;21499;-80
2021/06/20 01:34:09;;;;;;;3.92;3.22;;;;;;;11.23;99.57;93290.00;1795845;78;21474;-80
2021/06/20 01:36:35;;;;;;;5.00;3.10;;;;;;;11.26;98.93;93292.52;1745695;81;21086;-79
2021/06/20 01:39:05;;;;;;;2.70;2.50;;;;;;;11.27;98.29;93295.41;1797991;79;21167;-82
2021/06/20 01:41:32;;;;;;;3.65;2.42;;;;;;;11.26;98.02;93300.09;1768731;79;21372;-81
2021/06/20 01:43:58;;;;;;;2.98;2.35;;;;;;;11.21;97.20;93294.29;1776939;78;21709;-78
2021/06/20 01:46:27;;;;;;;2.50;2.30;;;;;;;11.07;96.96;93289.16;1803051;78;21085;-79
2021/06/20 01:48:55;;;;;;;3.27;2.25;;;;;;;10.96;97.18;93287.70;1815333;78;20983;-78
2021/06/20 01:51:22;;;;;;;2.10;2.00;;;;;;;10.85;97.59;93285.05;1795420;79;21030;-79
2021/06/20 01:53:49;;;;;;;4.17;2.35;;;;;;;10.78;97.92;93287.82;1757922;78;21094;-82
2021/06/20 01:56:15;;;;;;;2.40;2.20;;;;;;;10.76;98.57;93289.59;1782108;78;21645;-80
2021/06/20 01:58:41;;;;;;;6.47;2.27;;;;;;;10.77;98.60;93293.85;1795910;78;21081;-78
2021/06/20 02:01:08;;;;;;;4.45;2.52;;;;;;;10.74;98.50;93303.39;1807372;78;21754;-80
2021/06/20 02:03:34;;;;;;;2.42;2.22;;;;;;;10.67;98.76;93291.97;1790936;79;21078;-81
2021/06/20 02:06:01;;;;;;;2.15;2.05;;;;;;;10.68;99.33;93291.59;1803076;78;21072;-80
2021/06/20 02:08:29;;;;;;;5.25;2.33;;;;;;;10.72;98.93;93293.48;1803080;78;20979;-80
2021/06/20 02:10:56;;;;;;;5.10;3.30;;;;;;;10.74;98.74;93293.87;1780332;79;21027;-76
2021/06/20 02:13:24;;;;;;;3.50;3.20;;;;;;;10.75;98.68;93292.10;1761797;78;21536;-79
2021/06/20 02:18:21;;;;;;;4.40;2.67;;;;;;;10.76;99.64;93280.08;1813848;78;21018;-81
2021/06/20 02:20:48;;;;;;;7.75;2.20;;;;;;;10.80;100.00;93278.69;1791238;79;22118;-79
2021/06/20 02:23:14;;;;;;;2.58;2.37;;;;;;;10.85;99.67;93283.70;1795981;78;21073;-78
2021/06/20 02:25:41;;;;;;;2.80;1.90;;;;;;;10.81;98.90;93291.88;1796212;78;21068;-79
2021/06/20 02:28:08;;;;;;;1.70;1.50;;;;;;;10.71;98.80;93295.44;1788351;78;21007;-78
2021/06/20 02:30:35;;;;;;;2.67;2.47;;;;;;;10.65;99.18;93297.05;1759798;81;21045;-82
2021/06/20 02:33:02;;;;;;;3.83;2.08;;;;;;;10.65;99.17;93309.28;1799440;79;21667;-81
2021/06/20 02:35:28;;;;;;;3.67;2.45;;;;;;;10.62;98.98;93304.63;1765441;79;21654;-80
2021/06/20 02:37:55;;;;;;;2.60;2.40;;;;;;;10.59;99.23;93308.91;1765927;79;21022;-77
2021/06/20 02:40:22;;;;;;;3.90;2.40;;;;;;;10.61;99.84;93312.61;1803981;78;21029;-79
2021/06/20 02:42:48;;;;;;;4.65;2.27;;;;;;;10.64;99.46;93311.23;1821111;78;20967;-74
2021/06/20 02:45:18;;;;;;;3.42;2.00;;;;;;;10.69;98.85;93316.83;1804144;78;21430;-82
2021/06/20 02:47:45;;;;;;;3.85;2.70;;;;;;;10.67;98.04;93320.52;1802670;77;21017;-80
2021/06/20 02:50:12;;;;;;;2.90;2.00;;;;;;;10.60;97.93;93329.48;1792132;78;21078;-78
2021/06/20 02:52:38;;;;;;;3.12;2.22;;;;;;;10.54;98.04;93327.60;1795183;78;21041;-79
2021/06/20 02:55:06;;;;;;;8.85;3.00;;;;;;;10.45;98.11;93330.17;1813994;78;21116;-78
2021/06/20 02:57:34;;;;;;;2.30;2.10;;;;;;;10.39;98.31;93329.61;1775209;79;21308;-78
2021/06/20 03:00:03;;;;;;;2.52;2.33;;;;;;;10.34;98.83;93338.16;1719895;79;21775;-82
2021/06/20 03:02:29;;;;;;;3.02;2.83;;;;;;;10.36;99.72;93336.61;1742945;80;21069;-80
2021/06/20 03:04:56;;;;;;;2.67;2.47;;;;;;;10.43;100.00;93339.88;1772226;79;21039;-80
2021/06/20 03:07:22;;;;;;;4.58;2.83;;;;;;;10.47;100.00;93335.20;1784432;79;21025;-81
2021/06/20 03:09:50;;;;;;;3.22;2.92;;;;;;;10.55;100.00;93339.42;1788448;79;21055;-76
2021/06/20 03:12:16;;;;;;;4.65;3.10;;;;;;;10.66;100.00;93334.70;1797566;78;21041;-80
2021/06/20 03:14:43;;;;;;;3.85;3.50;;;;;;;10.74;100.00;93324.56;1761216;79;21205;-79
2021/06/20 03:17:11;;;;;;;3.70;3.40;;;;;;;10.79;100.00;93330.93;1748203;81;21610;-80
2021/06/20 03:19:37;;;;;;;6.75;4.20;;;;;;;10.84;100.00;93329.17;1751704;81;21252;-81
2021/06/20 03:22:04;;;;;;;4.00;3.65;;;;;;;10.91;100.00;93325.05;1757429;81;21071;-81
2021/06/20 03:24:34;;;;;;;4.17;3.75;;;;;;;10.96;100.00;93323.84;1755266;79;21022;-80
2021/06/20 03:27:01;;;;;;;4.87;3.70;;;;;;;10.98;100.00;93317.98;1729590;80;21091;-85
2021/06/20 03:29:30;;;;;;;5.33;3.52;;;;;;;10.99;100.00;93324.41;1756142;80;22102;-84
2021/06/20 03:31:57;;;;;;;4.50;4.12;;;;;;;11.03;100.00;93320.30;1782396;79;21026;-79
2021/06/20 03:34:23;;;;;;;3.42;3.12;;;;;;;11.04;100.00;93312.31;1816465;78;21057;-80
2021/06/20 03:36:50;;;;;;;6.67;3.33;;;;;;;11.02;100.00;93310.01;1813737;78;21038;-77
2021/06/20 03:39:18;;;;;;;3.77;3.47;;;;;;;11.05;100.00;93313.86;1773028;78;21373;-80
2021/06/20 03:41:45;;;;;;;4.37;3.30;;;;;;;11.05;100.00;93305.70;1785090;78;21655;-80
2021/06/20 03:44:11;;;;;;;7.42;3.52;;;;;;;11.04;100.00;93302.20;1792251;78;21040;-79
2021/06/20 03:46:38;;;;;;;3.52;3.22;;;;;;;11.05;100.00;93296.17;1800973;78;21041;-83
2021/06/20 03:49:04;;;;;;;3.17;2.98;;;;;;;11.01;100.00;93286.67;1773620;80;21053;-76
2021/06/20 03:51:32;;;;;;;5.15;3.25;;;;;;;11.00;100.00;93278.92;1755315;80;21938;-77
2021/06/20 03:53:58;;;;;;;3.55;3.25;;;;;;;10.99;99.33;93278.75;1759150;79;21058;-79
2021/06/20 03:56:25;;;;;;;5.55;2.50;;;;;;;10.94;99.17;93279.36;1769462;79;21088;-81
2021/06/20 03:58:51;;;;;;;5.72;2.83;;;;;;;10.93;98.75;93283.23;1770490;79;21188;-79
2021/06/20 04:01:18;;;;;;;13.62;3.35;;;;;;;10.86;98.33;93281.16;1787887;80;21025;-76
2021/06/20 04:03:44;;;;;;;8.73;3.05;;;;;;;10.74;98.57;93285.13;1771578;79;21540;-81
2021/06/20 04:06:11;;;;;;;12.40;3.15;;;;;;;10.72;99.37;93286.69;1761854;80;21040;-82
2021/06/20 04:08:38;;;;;;;4.78;3.00;;;;;;;10.70;99.83;93278.35;1771123;80;21049;-81
2021/06/20 04:11:09;;;;;;;5.87;2.92;;;;;;;10.74;100.00;93276.97;1766207;80;21323;-83
2021/06/20 04:13:37;;;;;;;2.80;2.60;;;;;;;10.85;100.00;93276.89;1763010;80;21144;-81
2021/06/20 04:16:04;;;;;;;4.58;4.12;;;;;;;10.88;100.00;93281.55;1763146;80;21122;-86
2021/06/20 04:18:31;;;;;;;4.67;2.70;;;;;;;10.88;100.00;93280.95;1762574;80;21040;-79
2021/06/20 04:20:57;;;;;;;3.60;3.30;;;;;;;10.88;100.00;93277.46;1760406;80;21061;-79
2021/06/20 04:23:26;;;;;;;4.37;3.90;;;;;;;10.94;100.00;93283.44;1766108;80;21074;-82
2021/06/20 04:25:52;;;;;;;3.90;2.70;;;;;;;11.03;100.00;93279.48;1766277;80;21053;-78
2021/06/20 04:28:21;;;;;;;2.85;2.65;;;;;;;11.18;100.00;93272.75;1779364;80;21531;-76
2021/06/20 04:30:53;;;;;;;4.53;3.30;;;;;;;11.36;100.00;93271.23;1769720;80;21057;-82
2021/06/20 04:33:16;;;;;;;3.45;3.15;;;;;;;11.53;100.00;93259.39;1768100;79;21049;-80
2021/06/20 04:35:43;;;;;;;3.50;3.20;;;;;;;11.71;100.00;93258.44;1751480;80;21049;-84
2021/06/20 04:38:11;;;;;;;3.37;3.10;;;;;;;11.86;100.00;93260.63;1771263;80;21066;-80
2021/06/20 04:40:40;;;;;;;3.42;3.17;;;;;;;11.98;100.00;93251.73;1766386;80;21132;-81
2021/06/20 04:43:25;;;;;;;2.85;2.52;;;;;;;12.02;99.83;93243.69;1767934;80;21120;-80
2021/06/20 04:45:43;;;;;;;3.40;3.10;;;;;;;12.04;99.33;93236.48;1758313;79;21628;-81
2021/06/20 04:48:10;;;;;;;4.17;3.20;;;;;;;12.07;99.15;93232.92;1743572;80;21717;-83
2021/06/20 04:50:38;;;;;;;4.12;3.72;;;;;;;12.11;99.37;93233.65;1751544;79;21495;-81
2021/06/20 04:53:08;;;;;;;7.62;3.87;;;;;;;12.18;99.30;93237.65;1789178;79;21142;-80
2021/06/20 04:55:36;;;;;;;3.70;3.40;;;;;;;12.22;99.24;93223.38;1771466;79;21048;-80
2021/06/20 04:58:03;;;;;;;4.25;3.92;;;;;;;12.28;98.67;93224.48;1750320;79;21081;-80
2021/06/20 05:00:30;;;;;;;3.80;3.50;;;;;;;12.36;98.71;93223.79;1760815;79;21017;-81
2021/06/20 05:03:00;;;;;;;5.53;4.35;;;;;;;12.56;98.63;93224.69;1758151;79;21710;-84
2021/06/20 05:05:28;;;;;;;5.10;4.62;;;;;;;12.86;98.76;93220.31;1737544;80;21109;-82
2021/06/20 05:07:54;;;;;;;6.58;4.15;;;;;;;13.14;97.78;93217.73;1775590;79;21065;-80
2021/06/20 05:10:21;;;;;;;3.75;3.50;;;;;;;13.35;96.71;93213.88;1747069;81;21133;-80
2021/06/20 05:12:54;;;;;;;4.50;4.10;;;;;;;13.53;95.39;93214.33;1756266;80;21082;-78
2021/06/20 05:15:18;;;;;;;3.80;3.50;;;;;;;13.75;94.61;93198.91;1777324;80;21580;-81
2021/06/20 05:17:45;;;;;;;3.20;3.00;;;;;;;14.15;94.22;93196.92;1771277;79;21533;-79
2021/06/20 05:20:14;;;;;;;3.30;2.90;;;;;;;14.63;92.47;93195.52;1755676;79;21063;-79
2021/06/20 05:22:42;;;;;;;6.67;4.55;;;;;;;15.03;90.11;93185.16;1684355;83;21150;-81
2021/06/20 05:25:10;;;;;;;4.17;3.77;;;;;;;15.29;88.72;93186.08;1754106;80;22105;-80
2021/06/20 05:27:36;;;;;;;3.60;3.30;;;;;;;15.41;86.67;93179.13;1775466;79;21038;-81
2021/06/20 05:30:04;;;;;;;4.33;3.42;;;;;;;15.46;86.02;93177.24;1739085;80;21607;-81
2021/06/20 05:32:31;;;;;;;3.12;2.92;;;;;;;15.54;85.58;93186.05;1720571;80;21054;-82
2021/06/20 05:34:57;;;;;;;3.37;3.05;;;;;;;15.67;85.14;93191.59;1747758;80;21059;-81
2021/06/20 05:37:24;;;;;;;3.30;3.00;;;;;;;15.91;84.36;93195.64;1765898;79;21172;-80
2021/06/20 05:39:50;;;;;;;3.40;2.90;;;;;;;16.21;83.20;93186.17;1725730;81;21047;-79
2021/06/20 05:42:16;;;;;;;2.45;2.25;;;;;;;16.42;81.48;93184.75;1733565;81;21071;-81
2021/06/20 05:44:44;;;;;;;4.45;2.75;;;;;;;16.50;79.94;93191.56;1776914;80;21069;-77
2021/06/20 05:47:10;;;;;;;2.75;2.33;;;;;;;16.49;79.91;93192.77;1762948;79;21069;-82
2021/06/20 05:49:37;;;;;;;2.90;2.70;;;;;;;16.56;80.11;93199.27;1758783;80;21034;-80
2021/06/20 05:52:04;;;;;;;3.10;2.90;;;;;;;16.65;80.08;93203.48;1757187;79;21028;-82
2021/06/20 05:54:32;;;;;;;2.83;2.50;;;;;;;16.74;78.96;93198.92;1757242;80;21139;-82
2021/06/20 05:59:26;;;;;;;2.90;2.70;;;;;;;16.79;78.58;93196.22;1880189;76;22770;-81
2021/06/20 06:01:53;;;;;;;5.90;5.30;;;;;;;16.68;78.56;93197.89;1814657;77;21084;-80
2021/06/20 06:04:23;;;;;;;3.22;2.92;;;;;;;16.73;79.30;93189.70;1831030;76;21553;-78
2021/06/20 06:06:49;;;;;;;2.27;2.10;;;;;;;16.90;79.30;93189.02;1825765;77;21053;-80
2021/06/20 06:09:16;;;;;;;3.70;2.70;;;;;;;17.21;78.31;93186.44;1808697;77;21129;-77
2021/06/20 06:13:41;;;;;;;3.67;2.90;;;;;;;18.03;75.43;93170.51;1831511;75;22055;-81
2021/06/20 06:16:09;;;;;;;3.40;3.10;;;;;;;18.26;74.25;93171.41;1822213;76;21037;-80
2021/06/20 06:18:37;;;;;;;3.42;3.12;;;;;;;18.46;74.57;93175.18;1802596;77;21544;-77
2021/06/20 06:21:04;;;;;;;2.80;2.60;;;;;;;18.57;74.16;93174.78;1794918;76;21108;-81
2021/06/20 06:25:25;;;;;;;3.05;2.70;;;;;;;18.69;73.36;93165.64;1850212;75;23320;-80
2021/06/20 06:27:52;;;;;;;2.95;2.67;;;;;;;18.57;72.77;93162.39;1813267;77;21547;-81
2021/06/20 06:30:27;;;;;;;6.58;2.90;;;;;;;18.41;72.66;93169.66;1817421;77;21761;-80
2021/06/20 06:32:53;;;;;;;2.80;2.58;;;;;;;18.23;73.41;93166.80;1777567;78;21537;-78
2021/06/20 06:35:20;;;;;;;5.45;4.75;;;;;;;18.07;73.92;93165.64;1712695;78;21133;-80
2021/06/20 06:37:49;;;;;;;3.77;3.20;;;;;;;17.90;73.91;93158.97;1799411;78;21088;-80
2021/06/20 06:40:17;;;;;;;3.75;2.60;;;;;;;17.76;74.36;93167.72;1803852;78;21113;-81
2021/06/20 06:42:47;;;;;;;4.67;2.95;;;;;;;17.60;74.51;93167.27;1806456;78;21187;-80
2021/06/20 06:45:16;;;;;;;3.00;2.70;;;;;;;17.47;74.95;93167.91;1783130;79;21471;-80
2021/06/20 06:47:43;;;;;;;3.20;2.77;;;;;;;17.35;75.07;93163.23;1783417;78;21645;-79
2021/06/20 06:50:11;;;;;;;2.70;2.50;;;;;;;17.26;75.92;93165.88;1763899;78;21103;-80
2021/06/20 06:52:37;;;;;;;3.40;3.12;;;;;;;17.15;76.75;93162.10;1786767;78;21674;-81
2021/06/20 06:55:05;;;;;;;3.33;2.40;;;;;;;17.06;77.65;93168.28;1781700;80;22179;-79
2021/06/20 06:57:34;;;;;;;2.75;2.40;;;;;;;17.02;78.47;93153.14;1784706;80;21100;-79
2021/06/20 07:00:01;;;;;;;3.05;2.85;;;;;;;16.98;78.95;93166.38;1779307;79;21049;-79
2021/06/20 07:02:27;;;;;;;3.65;2.80;;;;;;;16.98;78.81;93173.24;1787522;77;21093;-80
2021/06/20 07:05:08;;;;;;;3.00;2.75;;;;;;;16.99;78.66;93176.75;1814469;76;21158;-78
2021/06/20 07:07:35;;;;;;;5.42;4.70;;;;;;;16.98;78.12;93173.85;1801818;78;21136;-80
2021/06/20 07:10:03;;;;;;;6.08;4.08;;;;;;;17.02;78.30;93178.63;1807528;77;20998;-79
2021/06/20 07:12:31;;;;;;;4.72;3.60;;;;;;;17.01;78.53;93177.09;1791914;77;21061;-80
2021/06/20 07:14:59;;;;;;;3.85;2.92;;;;;;;16.96;78.86;93175.67;1752241;78;21143;-80
2021/06/20 07:17:25;;;;;;;2.95;2.70;;;;;;;16.93;79.02;93175.79;1770439;80;21054;-80
2021/06/20 07:19:52;;;;;;;5.40;3.12;;;;;;;16.91;79.22;93169.95;1780402;80;21120;-80
2021/06/20 07:22:19;;;;;;;2.72;2.52;;;;;;;16.95;79.62;93163.13;1754469;78;21529;-79
2021/06/20 07:24:56;;;;;;;3.00;2.67;;;;;;;17.05;80.26;93171.48;1769070;78;21717;-78
2021/06/20 07:27:23;;;;;;;4.17;2.67;;;;;;;17.15;79.52;93167.59;1750694;76;21495;-79
2021/06/20 07:29:54;;;;;;;2.60;2.37;;;;;;;17.33;79.21;93163.66;1825977;76;21110;-79
2021/06/20 07:32:37;;;;;;;2.90;2.70;;;;;;;17.47;78.23;93163.79;1749675;79;21181;-80
2021/06/20 07:35:06;;;;;;;2.35;2.15;;;;;;;17.57;77.70;93162.66;1723958;81;21113;-79
2021/06/20 07:37:33;;;;;;;2.75;2.55;;;;;;;17.66;77.68;93168.22;1826801;76;21122;-80
2021/06/20 07:40:10;;;;;;;2.65;2.45;;;;;;;17.73;77.38;93165.83;1813915;77;21667;-79
2021/06/20 07:42:41;;;;;;;2.30;2.20;;;;;;;17.78;76.76;93161.77;1770889;79;20919;-79
2021/06/20 07:45:07;;;;;;;3.27;2.62;;;;;;;17.77;74.20;93163.75;1808035;76;21335;-80
2021/06/20 07:47:36;;;;;;;2.42;2.20;;;;;;;17.79;73.55;93166.05;1857416;76;21022;-79
2021/06/20 07:50:09;;;;;;;2.42;2.15;;;;;;;17.82;73.36;93162.41;1776359;78;21151;-80
2021/06/20 07:52:39;;;;;;;3.70;3.40;;;;;;;17.85;73.21;93167.02;1795537;78;21076;-76
2021/06/20 07:55:25;;;;;;;4.17;3.77;;;;;;;17.88;71.51;93169.64;1801961;75;21006;-83
2021/06/20 07:57:54;;;;;;;;;;;;;;;17.87;71.26;93167.34;1823132;75;21076;-78
2021/06/20 08:00:23;;;;;;;3.15;2.85;;;;;;;17.83;71.02;93177.72;1834782;77;20140;-80
2021/06/20 08:02:51;;;;;;;2.80;2.60;;;;;;;17.78;70.22;93179.64;1795196;79;21184;-78
2021/06/20 08:05:17;;;;;;;2.62;2.42;;;;;;;17.73;70.63;93174.84;1776699;80;21104;-81
2021/06/20 08:07:44;;;;;;;2.15;2.02;;;;;;;17.69;69.49;93168.70;1792627;79;21376;-85
2021/06/20 08:10:13;;;;;;;2.17;2.08;;;;;;;17.71;69.47;93165.50;1779771;79;21293;-81
2021/06/20 08:12:41;;;;;;;1.90;1.80;;;;;;;17.72;69.28;93157.44;1776828;79;21131;-81
2021/06/20 08:15:12;;;;;;;2.62;2.42;;;;;;;17.78;68.98;93161.16;1757974;77;20883;-80
2021/06/20 08:17:41;;;;;;;2.40;2.30;;;;;;;17.85;69.63;93150.52;1830977;76;21052;-79
2021/06/20 08:20:21;;;;;;;2.62;2.25;;;;;;;17.95;70.52;93155.64;1822419;76;21092;-79
2021/06/20 08:22:56;;;;;;;2.08;1.98;;;;;;;18.07;70.71;93147.15;1751425;79;22317;-80
2021/06/20 08:25:23;;;;;;;2.08;1.87;;;;;;;18.14;70.01;93140.63;1763440;79;21070;-80
2021/06/20 08:27:51;;;;;;;2.50;2.30;;;;;;;18.17;69.34;93148.75;1802495;78;21049;-80
2021/06/20 08:30:24;;;;;;;2.62;2.52;;;;;;;18.19;69.85;93142.78;1810858;78;21038;-82
2021/06/20 08:32:51;;;;;;;2.60;2.40;;;;;;;18.19;70.65;93140.03;1731310;75;21184;-82
2021/06/20 08:35:19;;;;;;;2.72;2.50;;;;;;;18.19;71.51;93131.16;1790709;79;21407;-80
2021/06/20 08:37:48;;;;;;;3.80;3.50;;;;;;;18.16;71.79;93111.42;1786517;78;21026;-82
2021/06/20 08:40:16;;;;;;;3.08;2.65;;;;;;;18.15;72.13;93117.38;1715606;80;21074;-84
2021/06/20 08:42:43;;;;;;;4.25;3.85;;;;;;;18.15;72.77;93114.63;1738861;79;21093;-81
2021/06/20 08:45:14;;;;;;;4.72;3.40;;;;;;;18.15;73.68;93109.13;1761463;78;21018;-80
2021/06/20 08:47:48;;;;;;;4.53;4.03;;;;;;;18.15;73.57;93110.50;1780845;77;21054;-82
2021/06/20 08:50:15;;;;;;;4.45;4.03;;;;;;;18.14;72.96;93108.37;1782438;78;21544;-81
2021/06/20 08:52:44;;;;;;;4.10;3.05;;;;;;;18.13;73.30;93121.97;1813283;77;21090;-79
2021/06/20 08:55:15;;;;;;;5.35;4.50;;;;;;;18.11;73.23;93123.02;1788119;77;21562;-80
2021/06/20 08:57:48;;;;;;;7.60;5.03;;;;;;;18.09;74.52;93132.34;1792679;77;21019;-79
2021/06/20 09:00:18;;;;;;;11.65;7.55;;;;;;;18.05;74.59;93131.69;1760357;77;21349;-81
2021/06/20 09:02:46;;;;;;;6.72;4.85;;;;;;;18.03;75.60;93147.13;1815761;77;20974;-82
2021/06/20 09:05:22;;;;;;;4.28;3.77;;;;;;;17.92;76.42;93155.77;1729189;80;21073;-81
2021/06/20 09:07:49;;;;;;;7.25;4.00;;;;;;;17.78;77.63;93152.91;1786274;78;21022;-82
2021/06/20 09:10:26;;;;;;;15.75;8.85;;;;;;;17.66;80.10;93144.84;1746498;80;21101;-82
2021/06/20 09:12:59;;;;;;;8.40;5.33;;;;;;;17.52;81.32;93145.34;1783146;77;21150;-81
2021/06/20 09:15:33;;;;;;;10.50;7.25;;;;;;;17.38;83.54;93149.98;1775882;77;20985;-84
2021/06/20 09:18:14;;;;;;;10.28;6.12;;;;;;;17.23;84.80;93140.84;1750159;77;21081;-81
2021/06/20 09:20:45;;;;;;;4.40;4.00;;;;;;;17.13;85.79;93139.20;1805583;79;21100;-80
2021/06/20 09:23:15;;;;;;;4.83;4.30;;;;;;;17.03;86.55;93134.83;1806889;78;21062;-76
2021/06/20 09:25:45;;;;;;;4.53;3.87;;;;;;;16.93;88.00;93137.34;1807968;77;22631;-83
2021/06/20 09:28:24;;;;;;;4.30;3.87;;;;;;;16.88;89.26;93133.15;1805454;77;21000;-81
2021/06/20 09:31:00;;;;;;;5.90;4.50;;;;;;;16.82;89.34;93131.43;1805925;77;20899;-81
2021/06/20 09:33:28;;;;;;;5.30;4.80;;;;;;;16.73;90.03;93122.44;1759757;77;21041;-79
2021/06/20 09:36:04;;;;;;;4.37;3.98;;;;;;;16.68;91.04;93127.88;1808210;77;21070;-81
2021/06/20 09:38:40;;;;;;;4.60;3.77;;;;;;;16.64;91.25;93129.98;1738108;80;21066;-78
2021/06/20 09:41:12;;;;;;;5.17;4.67;;;;;;;16.60;91.54;93128.56;1780401;77;21034;-80
2021/06/20 09:44:14;;;;;;;8.08;6.05;;;;;;;16.58;92.54;93137.22;1785559;77;21661;-83
2021/06/20 09:46:52;;;;;;;7.17;6.17;;;;;;;16.59;93.19;93129.17;1778208;78;21872;-83
2021/06/20 09:49:28;;;;;;;7.10;5.50;;;;;;;16.58;93.59;93126.23;1824344;77;21516;-81
2021/06/20 09:51:55;;;;;;;4.87;4.40;;;;;;;16.56;93.97;93133.39;1781196;78;21422;-81
2021/06/20 09:54:34;;;;;;;6.72;6.12;;;;;;;16.47;94.48;93132.66;1800617;77;21840;-81
2021/06/20 10:00:06;;;;;;;8.20;7.40;;;;;;;16.29;95.82;93138.72;1803774;77;21086;-81
2021/06/20 10:02:39;;;;;;;8.18;7.40;;;;;;;16.19;96.85;93130.96;1747078;79;21130;-82
2021/06/20 10:05:09;;;;;;;16.50;14.85;;;;;;;16.15;97.76;93132.28;1760827;78;22418;-83
2021/06/20 10:07:37;;;;;;;9.83;8.83;;;;;;;16.18;98.86;93129.43;1761081;79;21825;-81
2021/06/20 10:10:11;;;;;;;5.37;4.70;;;;;;;16.24;99.13;93122.78;1805827;77;21065;-80
2021/06/20 10:12:54;;;;;;;4.60;4.17;;;;;;;16.27;98.93;93128.16;1797881;77;21042;-79
2021/06/20 10:18:03;;;;;;;6.62;4.97;;;;;;;16.23;98.75;93124.77;1818028;77;21152;-80
2021/06/20 10:20:33;;;;;;;6.85;5.60;;;;;;;16.23;99.34;93134.36;1804572;77;21359;-81
2021/06/20 10:23:00;;;;;;;7.40;6.70;;;;;;;16.29;99.66;93126.37;1809596;77;21804;-83
2021/06/20 10:25:39;;;;;;;7.85;7.05;;;;;;;16.33;99.53;93118.80;1787679;77;21575;-85
2021/06/20 10:28:11;;;;;;;6.92;6.22;;;;;;;16.39;99.07;93121.14;1779981;77;21007;-83
2021/06/20 10:30:37;;;;;;;6.20;5.70;;;;;;;16.38;98.78;93135.31;1774867;78;21029;-85
2021/06/20 10:33:09;;;;;;;6.42;5.83;;;;;;;16.28;98.61;93131.67;1808152;77;21038;-85
2021/06/20 10:35:44;;;;;;;5.23;4.83;;;;;;;16.22;99.26;93130.70;1787987;78;21082;-82
2021/06/20 10:38:44;;;;;;;5.10;4.33;;;;;;;16.21;99.31;93124.45;1812215;77;21056;-81
2021/06/20 10:41:29;;;;;;;5.00;4.60;;;;;;;16.17;99.20;93112.81;1752205;79;21105;-80
2021/06/20 10:44:07;;;;;;;5.35;4.58;;;;;;;16.19;99.62;93117.25;1723587;79;21134;-80
2021/06/20 10:46:55;;;;;;;9.45;6.37;;;;;;;16.25;99.43;93114.73;1747657;77;21305;-80
2021/06/20 10:49:22;;;;;;;8.23;6.40;;;;;;;16.30;99.59;93112.05;1802609;77;21078;-82
2021/06/20 10:51:49;;;;;;;4.97;4.47;;;;;;;16.34;100.00;93109.96;1809547;77;21830;-80
2021/06/20 10:54:27;;;;;;;4.37;3.98;;;;;;;16.42;99.33;93104.41;1782009;77;21101;-81
2021/06/20 10:57:01;;;;;;;5.33;4.83;;;;;;;16.49;98.64;93098.09;1815656;77;21377;-82
2021/06/20 10:59:35;;;;;;;8.80;6.47;;;;;;;16.51;98.58;93092.16;1806867;77;21113;-81
2021/06/20 11:02:07;;;;;;;7.65;5.95;;;;;;;16.57;99.10;93093.75;1752462;79;21113;-83
2021/06/20 11:04:41;;;;;;;4.80;4.33;;;;;;;16.61;99.29;93091.66;1739917;78;21094;-80
2021/06/20 11:07:08;;;;;;;5.22;4.62;;;;;;;16.59;98.29;93089.37;1799467;77;21084;-78
2021/06/20 11:09:36;;;;;;;7.58;4.37;;;;;;;16.59;98.12;93088.00;1778420;78;21102;-81
2021/06/20 11:12:15;;;;;;;5.83;5.15;;;;;;;16.61;98.23;93086.17;1764181;78;21077;-82
2021/06/20 11:14:45;;;;;;;3.65;3.35;;;;;;;16.61;98.16;93088.31;1783586;77;21049;-82
2021/06/20 11:17:14;;;;;;;3.98;3.58;;;;;;;16.65;98.01;93085.45;1778711;78;21026;-81
2021/06/20 11:19:42;;;;;;;3.90;3.47;;;;;;;16.69;98.38;93079.23;1763186;77;21153;-82
2021/06/20 11:22:16;;;;;;;4.20;3.80;;;;;;;16.72;98.46;93072.87;1798789;77;21061;-81
2021/06/20 11:24:58;;;;;;;6.08;4.60;;;;;;;16.75;98.80;93066.52;1743127;80;21077;-81
2021/06/20 11:27:37;;;;;;;4.80;4.40;;;;;;;16.80;98.95;93064.58;1715646;81;21588;-84
2021/06/20 11:30:40;;;;;;;5.60;5.10;;;;;;;16.85;99.51;93060.50;1790311;78;21160;-82
2021/06/20 11:33:10;;;;;;;7.70;5.58;;;;;;;16.95;100.00;93060.14;1745590;79;21118;-82
2021/06/20 11:35:43;;;;;;;6.58;5.97;;;;;;;17.12;100.00;93053.13;1787620;77;21055;-84
2021/06/20 11:38:43;;;;;;;5.95;4.95;;;;;;;17.21;100.00;93042.97;1719478;80;21069;-85
2021/06/20 11:42:20;;;;;;;4.55;4.15;;;;;;;17.29;100.00;93043.48;1720775;81;21018;-81
2021/06/20 11:44:57;;;;;;;5.03;4.50;;;;;;;17.33;100.00;93032.36;1750310;77;21069;-80
2021/06/20 11:47:40;;;;;;;6.08;5.20;;;;;;;17.33;100.00;93024.12;1772727;79;21050;-81
2021/06/20 11:50:17;;;;;;;;;;;;;;;17.35;100.00;93019.72;1720932;77;21049;-81
2021/06/20 11:53:03;;;;;;;6.42;5.83;;;;;;;17.37;99.95;93013.16;1794436;77;20231;-82
2021/06/20 11:55:36;;;;;;;8.73;5.67;;;;;;;17.39;100.00;93015.47;1770386;78;21893;-82
2021/06/20 11:58:17;;;;;;;7.08;5.62;;;;;;;17.45;100.00;93005.41;1750072;80;21742;-83